sensor_id;sensor_type;location;lat;lon;timestamp;P1;durP1;ratioP1;P2;durP2;ratioP2
63259;SDS011;49390;51.380;0.098;2023-09-19T00:00:46;6.22;;;2.00;;
63259;SDS011;49390;51.380;0.098;2023-09-19T00:03:36;8.00;;;1.90;;
63259;SDS011;49390;51.380;0.098;2023-09-19T00:06:05;10.32;;;2.10;;
63259;SDS011;49390;51.380;0.098;2023-09-19T00:08:37;11.57;;;2.35;;
63259;SDS011;49390;51.380;0.098;2023-09-19T00:11:05;8.73;;;2.00;;
63259;SDS011;49390;51.380;0.098;2023-09-19T00:13:33;7.65;;;2.20;;
63259;SDS011;49390;51.380;0.098;2023-09-19T00:16:10;11.48;;;2.25;;
63259;SDS011;49390;51.380;0.098;2023-09-19T00:18:39;9.18;;;2.15;;
63259;SDS011;49390;51.380;0.098;2023-09-19T00:21:07;7.22;;;2.50;;
63259;SDS011;49390;51.380;0.098;2023-09-19T00:23:35;9.02;;;2.20;;
63259;SDS011;49390;51.380;0.098;2023-09-19T00:26:03;8.13;;;2.38;;
63259;SDS011;49390;51.380;0.098;2023-09-19T00:28:31;7.78;;;2.45;;
63259;SDS011;49390;51.380;0.098;2023-09-19T00:31:03;10.57;;;2.60;;
63259;SDS011;49390;51.380;0.098;2023-09-19T00:33:32;11.82;;;3.10;;
63259;SDS011;49390;51.380;0.098;2023-09-19T00:36:01;7.22;;;2.20;;
63259;SDS011;49390;51.380;0.098;2023-09-19T00:38:32;9.50;;;2.08;;
63259;SDS011;49390;51.380;0.098;2023-09-19T00:41:00;7.95;;;2.10;;
63259;SDS011;49390;51.380;0.098;2023-09-19T00:43:28;11.48;;;2.85;;
63259;SDS011;49390;51.380;0.098;2023-09-19T00:45:57;8.15;;;2.63;;
63259;SDS011;49390;51.380;0.098;2023-09-19T00:48:26;7.28;;;2.45;;
63259;SDS011;49390;51.380;0.098;2023-09-19T00:50:57;8.88;;;2.65;;
63259;SDS011;49390;51.380;0.098;2023-09-19T00:53:29;8.20;;;2.50;;
63259;SDS011;49390;51.380;0.098;2023-09-19T00:55:58;8.00;;;2.22;;
63259;SDS011;49390;51.380;0.098;2023-09-19T00:58:27;7.85;;;2.20;;
63259;SDS011;49390;51.380;0.098;2023-09-19T01:01:01;9.60;;;2.70;;
63259;SDS011;49390;51.380;0.098;2023-09-19T01:03:38;7.82;;;2.63;;
63259;SDS011;49390;51.380;0.098;2023-09-19T01:06:08;12.48;;;3.10;;
63259;SDS011;49390;51.380;0.098;2023-09-19T01:08:39;5.45;;;2.00;;
63259;SDS011;49390;51.380;0.098;2023-09-19T01:11:17;11.50;;;2.85;;
63259;SDS011;49390;51.380;0.098;2023-09-19T01:16:42;10.70;;;2.40;;
63259;SDS011;49390;51.380;0.098;2023-09-19T01:21:57;9.30;;;2.47;;
63259;SDS011;49390;51.380;0.098;2023-09-19T01:28:01;9.45;;;2.67;;
63259;SDS011;49390;51.380;0.098;2023-09-19T01:30:49;5.82;;;2.47;;
63259;SDS011;49390;51.380;0.098;2023-09-19T01:33:27;10.30;;;2.47;;
63259;SDS011;49390;51.380;0.098;2023-09-19T01:35:54;11.43;;;2.65;;
63259;SDS011;49390;51.380;0.098;2023-09-19T01:38:26;9.68;;;2.78;;
63259;SDS011;49390;51.380;0.098;2023-09-19T01:41:00;11.35;;;2.65;;
63259;SDS011;49390;51.380;0.098;2023-09-19T01:43:37;8.27;;;2.78;;
63259;SDS011;49390;51.380;0.098;2023-09-19T01:54:09;7.25;;;2.47;;
63259;SDS011;49390;51.380;0.098;2023-09-19T01:56:45;11.50;;;3.40;;
63259;SDS011;49390;51.380;0.098;2023-09-19T01:59:24;9.98;;;2.45;;
63259;SDS011;49390;51.380;0.098;2023-09-19T02:04:20;12.10;;;2.60;;
63259;SDS011;49390;51.380;0.098;2023-09-19T02:06:51;9.77;;;2.70;;
63259;SDS011;49390;51.380;0.098;2023-09-19T02:09:21;10.68;;;3.20;;
63259;SDS011;49390;51.380;0.098;2023-09-19T02:11:51;10.75;;;3.28;;
63259;SDS011;49390;51.380;0.098;2023-09-19T02:14:19;9.30;;;2.63;;
63259;SDS011;49390;51.380;0.098;2023-09-19T02:16:47;8.10;;;2.78;;
63259;SDS011;49390;51.380;0.098;2023-09-19T02:19:17;8.65;;;2.30;;
63259;SDS011;49390;51.380;0.098;2023-09-19T02:21:45;14.13;;;2.70;;
63259;SDS011;49390;51.380;0.098;2023-09-19T02:24:13;9.90;;;2.75;;
63259;SDS011;49390;51.380;0.098;2023-09-19T02:26:42;13.02;;;2.75;;
63259;SDS011;49390;51.380;0.098;2023-09-19T02:29:11;10.55;;;2.47;;
63259;SDS011;49390;51.380;0.098;2023-09-19T02:31:40;7.80;;;2.22;;
63259;SDS011;49390;51.380;0.098;2023-09-19T02:34:08;7.75;;;2.55;;
63259;SDS011;49390;51.380;0.098;2023-09-19T02:36:37;7.93;;;2.15;;
63259;SDS011;49390;51.380;0.098;2023-09-19T02:39:05;9.70;;;3.35;;
63259;SDS011;49390;51.380;0.098;2023-09-19T02:41:33;12.63;;;2.55;;
63259;SDS011;49390;51.380;0.098;2023-09-19T02:44:01;9.40;;;3.22;;
63259;SDS011;49390;51.380;0.098;2023-09-19T02:46:30;9.07;;;2.60;;
63259;SDS011;49390;51.380;0.098;2023-09-19T02:48:58;9.90;;;2.72;;
63259;SDS011;49390;51.380;0.098;2023-09-19T02:51:26;12.45;;;3.33;;
63259;SDS011;49390;51.380;0.098;2023-09-19T02:53:54;7.25;;;2.45;;
63259;SDS011;49390;51.380;0.098;2023-09-19T02:56:22;10.10;;;2.20;;
63259;SDS011;49390;51.380;0.098;2023-09-19T02:58:51;9.27;;;2.70;;
63259;SDS011;49390;51.380;0.098;2023-09-19T03:01:19;10.90;;;2.20;;
63259;SDS011;49390;51.380;0.098;2023-09-19T03:03:48;9.90;;;2.65;;
63259;SDS011;49390;51.380;0.098;2023-09-19T03:06:16;9.38;;;2.30;;
63259;SDS011;49390;51.380;0.098;2023-09-19T03:08:47;10.20;;;2.20;;
63259;SDS011;49390;51.380;0.098;2023-09-19T03:11:17;9.27;;;2.50;;
63259;SDS011;49390;51.380;0.098;2023-09-19T03:13:55;15.13;;;2.72;;
63259;SDS011;49390;51.380;0.098;2023-09-19T03:16:23;10.65;;;2.95;;
63259;SDS011;49390;51.380;0.098;2023-09-19T03:18:56;9.05;;;2.33;;
63259;SDS011;49390;51.380;0.098;2023-09-19T03:21:25;9.48;;;2.40;;
63259;SDS011;49390;51.380;0.098;2023-09-19T03:23:54;9.57;;;2.85;;
63259;SDS011;49390;51.380;0.098;2023-09-19T03:26:22;8.00;;;2.40;;
63259;SDS011;49390;51.380;0.098;2023-09-19T03:28:50;12.55;;;2.70;;
63259;SDS011;49390;51.380;0.098;2023-09-19T03:31:18;9.50;;;2.33;;
63259;SDS011;49390;51.380;0.098;2023-09-19T03:33:47;10.88;;;2.63;;
63259;SDS011;49390;51.380;0.098;2023-09-19T03:36:15;7.65;;;2.30;;
63259;SDS011;49390;51.380;0.098;2023-09-19T03:38:43;7.68;;;2.15;;
63259;SDS011;49390;51.380;0.098;2023-09-19T03:41:11;11.48;;;2.95;;
63259;SDS011;49390;51.380;0.098;2023-09-19T03:43:42;8.05;;;2.83;;
63259;SDS011;49390;51.380;0.098;2023-09-19T03:46:10;10.70;;;2.60;;
63259;SDS011;49390;51.380;0.098;2023-09-19T03:48:41;10.83;;;2.33;;
63259;SDS011;49390;51.380;0.098;2023-09-19T03:51:10;9.65;;;2.83;;
63259;SDS011;49390;51.380;0.098;2023-09-19T03:53:38;10.00;;;2.75;;
63259;SDS011;49390;51.380;0.098;2023-09-19T03:56:07;13.82;;;2.92;;
63259;SDS011;49390;51.380;0.098;2023-09-19T03:58:35;10.13;;;2.53;;
63259;SDS011;49390;51.380;0.098;2023-09-19T04:01:07;12.93;;;2.78;;
63259;SDS011;49390;51.380;0.098;2023-09-19T04:03:35;10.65;;;2.58;;
63259;SDS011;49390;51.380;0.098;2023-09-19T04:06:14;13.70;;;2.85;;
63259;SDS011;49390;51.380;0.098;2023-09-19T04:08:43;8.18;;;2.30;;
63259;SDS011;49390;51.380;0.098;2023-09-19T04:11:12;8.32;;;2.50;;
63259;SDS011;49390;51.380;0.098;2023-09-19T04:13:40;9.73;;;2.35;;
63259;SDS011;49390;51.380;0.098;2023-09-19T04:16:09;11.73;;;2.60;;
63259;SDS011;49390;51.380;0.098;2023-09-19T04:18:38;8.45;;;2.50;;
63259;SDS011;49390;51.380;0.098;2023-09-19T04:21:08;7.05;;;2.38;;
63259;SDS011;49390;51.380;0.098;2023-09-19T04:23:36;9.75;;;2.30;;
63259;SDS011;49390;51.380;0.098;2023-09-19T04:26:05;9.10;;;2.53;;
63259;SDS011;49390;51.380;0.098;2023-09-19T04:28:34;11.77;;;3.63;;
63259;SDS011;49390;51.380;0.098;2023-09-19T04:31:06;7.57;;;2.72;;
63259;SDS011;49390;51.380;0.098;2023-09-19T04:33:35;10.95;;;2.50;;
63259;SDS011;49390;51.380;0.098;2023-09-19T04:36:04;7.80;;;2.72;;
63259;SDS011;49390;51.380;0.098;2023-09-19T04:38:54;8.93;;;2.50;;
63259;SDS011;49390;51.380;0.098;2023-09-19T04:41:25;9.10;;;2.70;;
63259;SDS011;49390;51.380;0.098;2023-09-19T04:43:53;7.50;;;2.45;;
63259;SDS011;49390;51.380;0.098;2023-09-19T04:46:21;12.85;;;2.67;;
63259;SDS011;49390;51.380;0.098;2023-09-19T04:48:49;12.65;;;2.58;;
63259;SDS011;49390;51.380;0.098;2023-09-19T04:51:17;10.38;;;2.70;;
63259;SDS011;49390;51.380;0.098;2023-09-19T04:53:46;8.77;;;2.40;;
63259;SDS011;49390;51.380;0.098;2023-09-19T04:56:24;7.65;;;2.53;;
63259;SDS011;49390;51.380;0.098;2023-09-19T04:58:52;9.15;;;2.65;;
63259;SDS011;49390;51.380;0.098;2023-09-19T05:01:20;10.57;;;3.50;;
63259;SDS011;49390;51.380;0.098;2023-09-19T05:03:50;8.77;;;2.40;;
63259;SDS011;49390;51.380;0.098;2023-09-19T05:06:20;8.55;;;2.70;;
63259;SDS011;49390;51.380;0.098;2023-09-19T05:08:49;11.95;;;2.70;;
63259;SDS011;49390;51.380;0.098;2023-09-19T05:11:20;9.48;;;2.28;;
63259;SDS011;49390;51.380;0.098;2023-09-19T05:16:23;7.82;;;2.25;;
63259;SDS011;49390;51.380;0.098;2023-09-19T05:18:53;11.40;;;3.15;;
63259;SDS011;49390;51.380;0.098;2023-09-19T05:21:21;9.00;;;2.75;;
63259;SDS011;49390;51.380;0.098;2023-09-19T05:23:51;7.18;;;2.72;;
63259;SDS011;49390;51.380;0.098;2023-09-19T05:26:20;10.75;;;2.70;;
63259;SDS011;49390;51.380;0.098;2023-09-19T05:28:48;10.52;;;3.10;;
63259;SDS011;49390;51.380;0.098;2023-09-19T05:31:16;10.07;;;2.60;;
63259;SDS011;49390;51.380;0.098;2023-09-19T05:33:44;11.65;;;2.80;;
63259;SDS011;49390;51.380;0.098;2023-09-19T05:36:12;8.55;;;2.33;;
63259;SDS011;49390;51.380;0.098;2023-09-19T05:38:40;11.00;;;3.60;;
63259;SDS011;49390;51.380;0.098;2023-09-19T05:41:09;11.45;;;2.40;;
63259;SDS011;49390;51.380;0.098;2023-09-19T05:46:09;10.43;;;2.65;;
63259;SDS011;49390;51.380;0.098;2023-09-19T05:48:38;10.52;;;2.63;;
63259;SDS011;49390;51.380;0.098;2023-09-19T05:51:07;10.27;;;2.00;;
63259;SDS011;49390;51.380;0.098;2023-09-19T05:53:37;10.20;;;2.90;;
63259;SDS011;49390;51.380;0.098;2023-09-19T05:56:09;14.02;;;3.17;;
63259;SDS011;49390;51.380;0.098;2023-09-19T05:58:38;13.25;;;2.67;;
63259;SDS011;49390;51.380;0.098;2023-09-19T06:01:06;9.93;;;2.47;;
63259;SDS011;49390;51.380;0.098;2023-09-19T06:03:34;10.88;;;2.67;;
63259;SDS011;49390;51.380;0.098;2023-09-19T06:06:03;9.55;;;2.55;;
63259;SDS011;49390;51.380;0.098;2023-09-19T06:08:33;10.70;;;3.55;;
63259;SDS011;49390;51.380;0.098;2023-09-19T06:11:01;7.45;;;2.45;;
63259;SDS011;49390;51.380;0.098;2023-09-19T06:13:30;8.70;;;2.35;;
63259;SDS011;49390;51.380;0.098;2023-09-19T06:16:01;7.72;;;2.33;;
63259;SDS011;49390;51.380;0.098;2023-09-19T06:18:32;9.52;;;2.67;;
63259;SDS011;49390;51.380;0.098;2023-09-19T06:21:03;7.68;;;1.85;;
63259;SDS011;49390;51.380;0.098;2023-09-19T06:23:34;3.90;;;1.55;;
63259;SDS011;49390;51.380;0.098;2023-09-19T06:26:03;7.13;;;2.25;;
63259;SDS011;49390;51.380;0.098;2023-09-19T06:28:34;7.63;;;1.73;;
63259;SDS011;49390;51.380;0.098;2023-09-19T06:31:02;6.95;;;1.92;;
63259;SDS011;49390;51.380;0.098;2023-09-19T06:33:33;4.25;;;1.90;;
63259;SDS011;49390;51.380;0.098;2023-09-19T06:36:02;4.55;;;1.85;;
63259;SDS011;49390;51.380;0.098;2023-09-19T06:38:31;6.07;;;2.22;;
63259;SDS011;49390;51.380;0.098;2023-09-19T06:41:02;5.70;;;1.80;;
63259;SDS011;49390;51.380;0.098;2023-09-19T06:43:35;8.75;;;1.90;;
63259;SDS011;49390;51.380;0.098;2023-09-19T06:46:03;8.45;;;1.77;;
63259;SDS011;49390;51.380;0.098;2023-09-19T06:48:31;4.78;;;1.90;;
63259;SDS011;49390;51.380;0.098;2023-09-19T06:51:00;7.40;;;1.95;;
63259;SDS011;49390;51.380;0.098;2023-09-19T06:53:32;6.38;;;2.03;;
63259;SDS011;49390;51.380;0.098;2023-09-19T06:56:02;5.22;;;1.90;;
63259;SDS011;49390;51.380;0.098;2023-09-19T06:58:30;4.57;;;1.70;;
63259;SDS011;49390;51.380;0.098;2023-09-19T07:00:59;7.95;;;2.10;;
63259;SDS011;49390;51.380;0.098;2023-09-19T07:03:27;8.95;;;2.40;;
63259;SDS011;49390;51.380;0.098;2023-09-19T07:05:56;5.50;;;2.33;;
63259;SDS011;49390;51.380;0.098;2023-09-19T07:08:26;6.53;;;2.00;;
63259;SDS011;49390;51.380;0.098;2023-09-19T07:10:54;7.63;;;2.03;;
63259;SDS011;49390;51.380;0.098;2023-09-19T07:13:23;6.55;;;2.00;;
63259;SDS011;49390;51.380;0.098;2023-09-19T07:15:52;8.35;;;2.20;;
63259;SDS011;49390;51.380;0.098;2023-09-19T07:18:21;5.45;;;1.98;;
63259;SDS011;49390;51.380;0.098;2023-09-19T07:20:58;6.55;;;2.10;;
63259;SDS011;49390;51.380;0.098;2023-09-19T07:23:32;5.45;;;1.80;;
63259;SDS011;49390;51.380;0.098;2023-09-19T07:26:02;8.25;;;2.63;;
63259;SDS011;49390;51.380;0.098;2023-09-19T07:30:57;6.85;;;2.10;;
63259;SDS011;49390;51.380;0.098;2023-09-19T07:33:30;6.55;;;2.17;;
63259;SDS011;49390;51.380;0.098;2023-09-19T07:36:01;6.70;;;2.40;;
63259;SDS011;49390;51.380;0.098;2023-09-19T07:38:30;8.65;;;2.83;;
63259;SDS011;49390;51.380;0.098;2023-09-19T07:41:01;8.93;;;2.40;;
63259;SDS011;49390;51.380;0.098;2023-09-19T07:43:30;7.80;;;2.50;;
63259;SDS011;49390;51.380;0.098;2023-09-19T07:46:02;5.05;;;2.35;;
63259;SDS011;49390;51.380;0.098;2023-09-19T07:48:33;7.32;;;3.08;;
63259;SDS011;49390;51.380;0.098;2023-09-19T07:51:03;5.20;;;2.20;;
63259;SDS011;49390;51.380;0.098;2023-09-19T07:53:35;8.02;;;2.60;;
63259;SDS011;49390;51.380;0.098;2023-09-19T07:56:04;9.20;;;2.30;;
63259;SDS011;49390;51.380;0.098;2023-09-19T07:58:33;8.57;;;2.55;;
63259;SDS011;49390;51.380;0.098;2023-09-19T08:01:03;7.03;;;2.50;;
63259;SDS011;49390;51.380;0.098;2023-09-19T08:03:33;9.60;;;2.58;;
63259;SDS011;49390;51.380;0.098;2023-09-19T08:06:01;12.18;;;2.65;;
63259;SDS011;49390;51.380;0.098;2023-09-19T08:08:31;8.13;;;2.75;;
63259;SDS011;49390;51.380;0.098;2023-09-19T08:11:01;10.23;;;2.60;;
63259;SDS011;49390;51.380;0.098;2023-09-19T08:13:30;11.73;;;3.05;;
63259;SDS011;49390;51.380;0.098;2023-09-19T08:16:07;6.85;;;2.60;;
63259;SDS011;49390;51.380;0.098;2023-09-19T08:18:36;10.18;;;2.60;;
63259;SDS011;49390;51.380;0.098;2023-09-19T08:21:07;10.48;;;2.80;;
63259;SDS011;49390;51.380;0.098;2023-09-19T08:23:38;10.55;;;2.90;;
63259;SDS011;49390;51.380;0.098;2023-09-19T08:26:09;7.25;;;2.80;;
63259;SDS011;49390;51.380;0.098;2023-09-19T08:28:37;11.18;;;3.17;;
63259;SDS011;49390;51.380;0.098;2023-09-19T08:31:08;10.70;;;2.67;;
63259;SDS011;49390;51.380;0.098;2023-09-19T08:33:39;14.35;;;3.35;;
63259;SDS011;49390;51.380;0.098;2023-09-19T08:36:08;9.27;;;2.92;;
63259;SDS011;49390;51.380;0.098;2023-09-19T08:38:37;12.85;;;3.03;;
63259;SDS011;49390;51.380;0.098;2023-09-19T08:41:05;11.30;;;3.60;;
63259;SDS011;49390;51.380;0.098;2023-09-19T08:43:37;10.48;;;3.20;;
63259;SDS011;49390;51.380;0.098;2023-09-19T08:46:09;7.75;;;3.03;;
63259;SDS011;49390;51.380;0.098;2023-09-19T08:48:54;13.75;;;3.67;;
63259;SDS011;49390;51.380;0.098;2023-09-19T08:54:12;11.82;;;3.55;;
63259;SDS011;49390;51.380;0.098;2023-09-19T08:56:47;14.68;;;3.80;;
63259;SDS011;49390;51.380;0.098;2023-09-19T08:59:15;12.95;;;3.38;;
63259;SDS011;49390;51.380;0.098;2023-09-19T09:01:51;18.92;;;4.15;;
63259;SDS011;49390;51.380;0.098;2023-09-19T09:04:22;12.10;;;3.67;;
63259;SDS011;49390;51.380;0.098;2023-09-19T09:06:50;10.40;;;3.40;;
63259;SDS011;49390;51.380;0.098;2023-09-19T09:09:21;15.95;;;4.07;;
63259;SDS011;49390;51.380;0.098;2023-09-19T09:11:49;12.68;;;3.65;;
63259;SDS011;49390;51.380;0.098;2023-09-19T09:14:20;11.38;;;3.55;;
63259;SDS011;49390;51.380;0.098;2023-09-19T09:16:49;9.63;;;3.65;;
63259;SDS011;49390;51.380;0.098;2023-09-19T09:19:17;15.23;;;3.63;;
63259;SDS011;49390;51.380;0.098;2023-09-19T09:21:52;10.73;;;3.70;;
63259;SDS011;49390;51.380;0.098;2023-09-19T09:24:25;12.00;;;3.90;;
63259;SDS011;49390;51.380;0.098;2023-09-19T09:26:56;14.15;;;3.65;;
63259;SDS011;49390;51.380;0.098;2023-09-19T09:32:18;12.75;;;3.70;;
63259;SDS011;49390;51.380;0.098;2023-09-19T09:34:53;10.82;;;3.90;;
63259;SDS011;49390;51.380;0.098;2023-09-19T09:37:25;14.63;;;3.90;;
63259;SDS011;49390;51.380;0.098;2023-09-19T09:39:59;11.85;;;3.63;;
63259;SDS011;49390;51.380;0.098;2023-09-19T09:42:44;12.50;;;3.75;;
63259;SDS011;49390;51.380;0.098;2023-09-19T09:45:18;13.73;;;3.22;;
63259;SDS011;49390;51.380;0.098;2023-09-19T09:47:59;10.75;;;4.22;;
63259;SDS011;49390;51.380;0.098;2023-09-19T09:50:34;9.00;;;3.40;;
63259;SDS011;49390;51.380;0.098;2023-09-19T09:53:27;11.75;;;4.05;;
63259;SDS011;49390;51.380;0.098;2023-09-19T09:56:00;16.27;;;4.22;;
63259;SDS011;49390;51.380;0.098;2023-09-19T09:58:37;11.45;;;3.55;;
63259;SDS011;49390;51.380;0.098;2023-09-19T10:01:17;15.38;;;5.95;;
63259;SDS011;49390;51.380;0.098;2023-09-19T10:03:45;16.90;;;4.70;;
63259;SDS011;49390;51.380;0.098;2023-09-19T10:06:19;10.25;;;3.60;;
63259;SDS011;49390;51.380;0.098;2023-09-19T10:09:11;15.95;;;4.32;;
63259;SDS011;49390;51.380;0.098;2023-09-19T10:11:47;13.95;;;3.97;;
63259;SDS011;49390;51.380;0.098;2023-09-19T10:14:25;14.50;;;4.40;;
63259;SDS011;49390;51.380;0.098;2023-09-19T10:17:00;15.10;;;4.32;;
63259;SDS011;49390;51.380;0.098;2023-09-19T10:19:37;14.18;;;4.82;;
63259;SDS011;49390;51.380;0.098;2023-09-19T10:22:17;12.88;;;4.03;;
63259;SDS011;49390;51.380;0.098;2023-09-19T10:24:51;15.32;;;4.72;;
63259;SDS011;49390;51.380;0.098;2023-09-19T10:27:35;13.88;;;4.25;;
63259;SDS011;49390;51.380;0.098;2023-09-19T10:30:05;13.38;;;4.53;;
63259;SDS011;49390;51.380;0.098;2023-09-19T10:32:36;13.48;;;3.92;;
63259;SDS011;49390;51.380;0.098;2023-09-19T10:35:11;14.07;;;4.50;;
63259;SDS011;49390;51.380;0.098;2023-09-19T10:37:41;11.20;;;4.13;;
63259;SDS011;49390;51.380;0.098;2023-09-19T10:40:13;13.40;;;4.65;;
63259;SDS011;49390;51.380;0.098;2023-09-19T10:42:43;17.02;;;4.93;;
63259;SDS011;49390;51.380;0.098;2023-09-19T10:45:18;14.95;;;5.22;;
63259;SDS011;49390;51.380;0.098;2023-09-19T10:47:51;12.13;;;4.80;;
63259;SDS011;49390;51.380;0.098;2023-09-19T10:50:19;14.40;;;4.38;;
63259;SDS011;49390;51.380;0.098;2023-09-19T10:52:52;15.18;;;4.60;;
63259;SDS011;49390;51.380;0.098;2023-09-19T10:55:35;20.02;;;4.97;;
63259;SDS011;49390;51.380;0.098;2023-09-19T10:58:06;9.88;;;4.32;;
63259;SDS011;49390;51.380;0.098;2023-09-19T11:00:57;17.63;;;4.88;;
63259;SDS011;49390;51.380;0.098;2023-09-19T11:03:38;15.60;;;4.18;;
63259;SDS011;49390;51.380;0.098;2023-09-19T11:08:53;12.77;;;4.35;;
63259;SDS011;49390;51.380;0.098;2023-09-19T11:30:50;12.80;;;4.30;;
63259;SDS011;49390;51.380;0.098;2023-09-19T11:33:23;10.75;;;3.58;;
63259;SDS011;49390;51.380;0.098;2023-09-19T11:36:02;14.35;;;4.22;;
63259;SDS011;49390;51.380;0.098;2023-09-19T11:43:53;13.30;;;4.00;;
63259;SDS011;49390;51.380;0.098;2023-09-19T11:46:54;14.38;;;4.28;;
63259;SDS011;49390;51.380;0.098;2023-09-19T11:49:28;12.80;;;3.50;;
63259;SDS011;49390;51.380;0.098;2023-09-19T11:51:58;13.07;;;4.18;;
63259;SDS011;49390;51.380;0.098;2023-09-19T11:54:33;11.10;;;3.85;;
63259;SDS011;49390;51.380;0.098;2023-09-19T11:57:04;11.35;;;4.07;;
63259;SDS011;49390;51.380;0.098;2023-09-19T11:59:33;10.75;;;3.80;;
63259;SDS011;49390;51.380;0.098;2023-09-19T12:02:03;10.00;;;4.20;;
63259;SDS011;49390;51.380;0.098;2023-09-19T12:07:13;8.93;;;3.17;;
63259;SDS011;49390;51.380;0.098;2023-09-19T12:09:47;10.40;;;3.58;;
63259;SDS011;49390;51.380;0.098;2023-09-19T12:12:25;11.43;;;3.75;;
63259;SDS011;49390;51.380;0.098;2023-09-19T12:14:55;13.07;;;3.67;;
63259;SDS011;49390;51.380;0.098;2023-09-19T12:17:36;10.10;;;3.38;;
63259;SDS011;49390;51.380;0.098;2023-09-19T12:20:11;14.35;;;4.88;;
63259;SDS011;49390;51.380;0.098;2023-09-19T12:22:49;10.80;;;3.80;;
63259;SDS011;49390;51.380;0.098;2023-09-19T12:25:17;10.20;;;3.83;;
63259;SDS011;49390;51.380;0.098;2023-09-19T12:27:48;10.45;;;3.53;;
63259;SDS011;49390;51.380;0.098;2023-09-19T12:30:29;15.15;;;3.78;;
63259;SDS011;49390;51.380;0.098;2023-09-19T12:33:01;9.68;;;3.10;;
63259;SDS011;49390;51.380;0.098;2023-09-19T12:35:35;10.15;;;3.63;;
63259;SDS011;49390;51.380;0.098;2023-09-19T12:38:03;7.85;;;3.45;;
63259;SDS011;49390;51.380;0.098;2023-09-19T12:40:33;10.00;;;3.72;;
63259;SDS011;49390;51.380;0.098;2023-09-19T12:43:03;8.57;;;3.53;;
63259;SDS011;49390;51.380;0.098;2023-09-19T12:45:32;10.18;;;3.28;;
63259;SDS011;49390;51.380;0.098;2023-09-19T12:48:22;11.13;;;3.38;;
63259;SDS011;49390;51.380;0.098;2023-09-19T12:51:05;9.73;;;3.25;;
63259;SDS011;49390;51.380;0.098;2023-09-19T12:53:40;8.55;;;3.28;;
63259;SDS011;49390;51.380;0.098;2023-09-19T12:56:14;11.85;;;3.40;;
63259;SDS011;49390;51.380;0.098;2023-09-19T12:58:54;8.63;;;3.20;;
63259;SDS011;49390;51.380;0.098;2023-09-19T13:01:24;8.95;;;3.55;;
63259;SDS011;49390;51.380;0.098;2023-09-19T13:06:47;11.05;;;3.55;;
63259;SDS011;49390;51.380;0.098;2023-09-19T13:09:17;9.57;;;3.30;;
63259;SDS011;49390;51.380;0.098;2023-09-19T13:11:48;12.05;;;3.65;;
63259;SDS011;49390;51.380;0.098;2023-09-19T13:14:22;8.73;;;3.03;;
63259;SDS011;49390;51.380;0.098;2023-09-19T13:25:16;9.40;;;3.33;;
63259;SDS011;49390;51.380;0.098;2023-09-19T13:30:25;8.70;;;3.13;;
63259;SDS011;49390;51.380;0.098;2023-09-19T13:33:10;10.38;;;3.33;;
63259;SDS011;49390;51.380;0.098;2023-09-19T13:35:39;10.52;;;3.08;;
63259;SDS011;49390;51.380;0.098;2023-09-19T13:38:08;10.05;;;3.80;;
63259;SDS011;49390;51.380;0.098;2023-09-19T13:43:09;10.43;;;3.22;;
63259;SDS011;49390;51.380;0.098;2023-09-19T13:45:39;9.73;;;3.35;;
63259;SDS011;49390;51.380;0.098;2023-09-19T13:48:09;10.82;;;3.50;;
63259;SDS011;49390;51.380;0.098;2023-09-19T13:53:09;8.88;;;3.13;;
63259;SDS011;49390;51.380;0.098;2023-09-19T13:55:38;10.68;;;3.22;;
63259;SDS011;49390;51.380;0.098;2023-09-19T13:58:06;8.35;;;3.40;;
63259;SDS011;49390;51.380;0.098;2023-09-19T14:00:34;10.52;;;3.50;;
63259;SDS011;49390;51.380;0.098;2023-09-19T14:03:02;8.55;;;3.15;;
63259;SDS011;49390;51.380;0.098;2023-09-19T14:05:32;9.90;;;3.40;;
63259;SDS011;49390;51.380;0.098;2023-09-19T14:08:02;7.65;;;2.60;;
63259;SDS011;49390;51.380;0.098;2023-09-19T14:10:31;10.68;;;2.92;;
63259;SDS011;49390;51.380;0.098;2023-09-19T14:12:59;9.00;;;2.83;;
63259;SDS011;49390;51.380;0.098;2023-09-19T14:15:27;6.43;;;2.78;;
63259;SDS011;49390;51.380;0.098;2023-09-19T14:17:59;11.27;;;2.72;;
63259;SDS011;49390;51.380;0.098;2023-09-19T14:22:59;7.90;;;2.60;;
63259;SDS011;49390;51.380;0.098;2023-09-19T14:25:28;6.97;;;2.33;;
63259;SDS011;49390;51.380;0.098;2023-09-19T14:27:57;7.30;;;2.40;;
63259;SDS011;49390;51.380;0.098;2023-09-19T14:30:25;12.75;;;2.97;;
63259;SDS011;49390;51.380;0.098;2023-09-19T14:32:57;6.07;;;2.42;;
63259;SDS011;49390;51.380;0.098;2023-09-19T14:35:26;6.38;;;2.42;;
63259;SDS011;49390;51.380;0.098;2023-09-19T14:37:53;9.38;;;2.70;;
63259;SDS011;49390;51.380;0.098;2023-09-19T14:40:22;7.35;;;2.47;;
63259;SDS011;49390;51.380;0.098;2023-09-19T14:42:50;10.73;;;3.10;;
63259;SDS011;49390;51.380;0.098;2023-09-19T14:45:19;10.50;;;2.75;;
63259;SDS011;49390;51.380;0.098;2023-09-19T14:47:50;7.75;;;3.33;;
63259;SDS011;49390;51.380;0.098;2023-09-19T14:50:22;6.85;;;2.70;;
63259;SDS011;49390;51.380;0.098;2023-09-19T14:52:53;9.38;;;3.17;;
63259;SDS011;49390;51.380;0.098;2023-09-19T14:55:21;7.43;;;2.90;;
63259;SDS011;49390;51.380;0.098;2023-09-19T14:57:50;7.55;;;3.00;;
63259;SDS011;49390;51.380;0.098;2023-09-19T15:00:24;8.35;;;2.88;;
63259;SDS011;49390;51.380;0.098;2023-09-19T15:02:52;9.93;;;2.85;;
63259;SDS011;49390;51.380;0.098;2023-09-19T15:05:21;6.38;;;2.70;;
63259;SDS011;49390;51.380;0.098;2023-09-19T15:07:50;8.13;;;3.00;;
63259;SDS011;49390;51.380;0.098;2023-09-19T15:10:18;8.35;;;2.55;;
63259;SDS011;49390;51.380;0.098;2023-09-19T15:12:46;7.40;;;2.78;;
63259;SDS011;49390;51.380;0.098;2023-09-19T15:15:14;5.40;;;2.28;;
63259;SDS011;49390;51.380;0.098;2023-09-19T15:17:42;8.98;;;2.50;;
63259;SDS011;49390;51.380;0.098;2023-09-19T15:20:10;8.60;;;2.45;;
63259;SDS011;49390;51.380;0.098;2023-09-19T15:22:41;7.05;;;2.80;;
63259;SDS011;49390;51.380;0.098;2023-09-19T15:25:10;7.68;;;2.45;;
63259;SDS011;49390;51.380;0.098;2023-09-19T15:27:38;6.75;;;2.80;;
63259;SDS011;49390;51.380;0.098;2023-09-19T15:30:09;8.00;;;2.70;;
63259;SDS011;49390;51.380;0.098;2023-09-19T15:32:38;6.88;;;2.60;;
63259;SDS011;49390;51.380;0.098;2023-09-19T15:35:07;8.13;;;2.70;;
63259;SDS011;49390;51.380;0.098;2023-09-19T15:37:39;7.50;;;2.78;;
63259;SDS011;49390;51.380;0.098;2023-09-19T15:40:08;7.20;;;2.60;;
63259;SDS011;49390;51.380;0.098;2023-09-19T15:42:38;5.78;;;2.42;;
63259;SDS011;49390;51.380;0.098;2023-09-19T15:45:09;6.47;;;2.53;;
63259;SDS011;49390;51.380;0.098;2023-09-19T15:47:38;9.32;;;2.90;;
63259;SDS011;49390;51.380;0.098;2023-09-19T15:50:06;6.45;;;2.75;;
63259;SDS011;49390;51.380;0.098;2023-09-19T15:52:37;5.77;;;2.47;;
63259;SDS011;49390;51.380;0.098;2023-09-19T15:55:05;10.63;;;3.20;;
63259;SDS011;49390;51.380;0.098;2023-09-19T15:57:36;6.03;;;2.40;;
63259;SDS011;49390;51.380;0.098;2023-09-19T16:00:04;9.20;;;2.93;;
63259;SDS011;49390;51.380;0.098;2023-09-19T16:02:43;8.75;;;2.83;;
63259;SDS011;49390;51.380;0.098;2023-09-19T16:05:15;7.70;;;3.05;;
63259;SDS011;49390;51.380;0.098;2023-09-19T16:07:43;7.15;;;2.50;;
63259;SDS011;49390;51.380;0.098;2023-09-19T16:10:12;6.18;;;2.63;;
63259;SDS011;49390;51.380;0.098;2023-09-19T16:12:41;7.00;;;2.47;;
63259;SDS011;49390;51.380;0.098;2023-09-19T16:15:09;9.90;;;2.85;;
63259;SDS011;49390;51.380;0.098;2023-09-19T16:17:41;7.40;;;2.92;;
63259;SDS011;49390;51.380;0.098;2023-09-19T16:20:09;9.80;;;3.33;;
63259;SDS011;49390;51.380;0.098;2023-09-19T16:22:39;9.20;;;3.00;;
63259;SDS011;49390;51.380;0.098;2023-09-19T16:25:08;10.02;;;3.10;;
63259;SDS011;49390;51.380;0.098;2023-09-19T16:27:39;7.15;;;3.10;;